KDAG

Details ICAO KDAG
Name BARSTOW DAGGETT
Region United States
Timezone America/Los_Angeles (UTC-7.0)
Plans Departing 9
Arriving 11
Stats Elevation 1,927 ft / 587 m (AMSL)
Location 34.853992° -116.786628°
Runways 2
Magnetic Variation 11.794° E
Sunrise 2018-05-25 12:39:02 UTC / 2018-05-25 05:39:02 Local
Sunset 2018-05-26 02:52:05 UTC / 2018-05-25 19:52:05 Local
Advertisement - Login to hide

Runways

ID Width Length Bearing (true) Bearing (mag) Surface Threshold Offset Overrun Length
04 100 ft / 30 m 5,118 ft / 1,560 m 50.37° 38.58° Asphalt 0 ft / 0 m 0 ft / 0 m
08 150 ft / 46 m 6,387 ft / 1,947 m 90.04° 78.25° Asphalt 0 ft / 0 m 0 ft / 0 m
22 100 ft / 30 m 5,118 ft / 1,560 m 230.38° 218.59° Asphalt 0 ft / 0 m 0 ft / 0 m
26 150 ft / 46 m 6,387 ft / 1,947 m 270.05° 258.26° Asphalt 0 ft / 0 m 0 ft / 0 m

Map

Weather


0- 5 10 15 20 25 30 35+ Temperature / ° C

Clouds and Precipitation
Forecast for 2018-05-25 12:00 UTC. Updated an hour ago

Ground ~20,000 ft ~40,000 ft Winds

METAR

KDAG 250950Z AUTO 27015KT 10SM CLR 15/08 A2998 RMK AO2 SLP132 T01500083

TAF

TAF KDAG 250520Z 2506/2606 28017KT P6SM SKC FM251600 27020G30KT P6SM SKC FM260100 24023G34KT P6SM SKC

Frequencies

Recorded 132.17 MHz ASOS
Unicom 123.00 MHz CTAF/UNICOM
Warning: Do not use this data for real-world aviation or navigation. No guarantee of current accuracy is given.